createdAt,value
2019-04-21T00:00:25.989Z,48.90
2019-04-21T00:02:55.457Z,48.70
2019-04-21T00:05:43.147Z,48.90
2019-04-21T00:08:27.535Z,48.80
2019-04-21T00:10:51.604Z,48.80
2019-04-21T00:13:12.418Z,48.80
2019-04-21T00:15:33.160Z,49.10
2019-04-21T00:18:08.852Z,49.10
2019-04-21T00:20:44.182Z,49.20
2019-04-21T00:23:25.404Z,49.50
2019-04-21T00:25:49.845Z,49.60
2019-04-21T00:28:32.792Z,49.70
2019-04-21T00:30:57.335Z,49.90
2019-04-21T00:33:15.779Z,50.10
2019-04-21T00:35:45.298Z,50.40
2019-04-21T00:38:32.346Z,50.40
2019-04-21T00:40:59.990Z,50.60
2019-04-21T00:43:28.408Z,50.70
2019-04-21T00:45:51.907Z,50.80
2019-04-21T00:48:36.358Z,50.80
2019-04-21T00:51:16.233Z,51.10
2019-04-21T00:53:43.731Z,51.40
2019-04-21T00:56:08.665Z,51.60
2019-04-21T00:58:41.798Z,51.70
2019-04-21T01:01:07.168Z,52.00
2019-04-21T01:03:43.636Z,51.90
2019-04-21T01:06:10.646Z,51.80
2019-04-21T01:08:35.669Z,51.80
2019-04-21T01:11:14.094Z,51.90
2019-04-21T01:13:42.579Z,51.80
2019-04-21T01:16:14.096Z,52.10
2019-04-21T01:18:39.462Z,52.10
2019-04-21T01:20:50.286Z,52.20
2019-04-21T01:23:19.235Z,52.50
2019-04-21T01:26:00.562Z,52.60
2019-04-21T01:28:35.946Z,52.80
2019-04-21T01:31:08.761Z,52.90
2019-04-21T01:36:12.878Z,53.40
2019-04-21T01:38:39.834Z,53.60
2019-04-21T01:41:17.987Z,53.80
2019-04-21T01:43:42.531Z,54.10
2019-04-21T01:46:09.273Z,54.60
2019-04-21T01:48:36.039Z,55.30
2019-04-21T01:51:05.112Z,55.30
2019-04-21T01:53:49.819Z,55.30
2019-04-21T01:56:16.948Z,55.90
2019-04-21T01:58:40.207Z,56.00
2019-04-21T02:01:19.304Z,55.90
2019-04-21T02:03:58.427Z,55.90
2019-04-21T02:06:21.272Z,55.90
2019-04-21T02:08:49.329Z,56.20
2019-04-21T02:11:26.448Z,56.50
2019-04-21T02:13:59.950Z,56.50
2019-04-21T02:16:22.758Z,56.80
2019-04-21T02:18:54.473Z,57.30
2019-04-21T02:21:17.869Z,57.60
2019-04-21T02:23:58.669Z,57.80
2019-04-21T02:26:28.576Z,58.10
2019-04-21T02:29:01.947Z,58.40
2019-04-21T02:31:41.301Z,58.80
2019-04-21T02:34:17.279Z,59.30
2019-04-21T02:39:23.138Z,61.20
2019-04-21T02:41:39.876Z,62.40
2019-04-21T02:46:37.520Z,63.80
2019-04-21T02:49:15.733Z,64.50
2019-04-21T02:52:01.684Z,65.50
2019-04-21T02:56:43.906Z,68.90
2019-04-21T03:01:48.905Z,71.70
2019-04-21T03:09:24.109Z,77.50
2019-04-21T03:11:56.036Z,78.80
2019-04-21T03:16:48.332Z,82.40
2019-04-21T03:19:33.231Z,84.40
2019-04-21T03:22:00.196Z,87.20
2019-04-21T03:24:24.446Z,90.10
2019-04-21T03:29:32.746Z,91.50
2019-04-21T03:32:25.737Z,92.40
2019-04-21T03:39:30.972Z,95.60
2019-04-21T03:42:14.144Z,96.80
2019-04-21T03:44:37.343Z,98.40
2019-04-21T03:47:01.729Z,98.90
2019-04-21T03:49:48.138Z,99.20
2019-04-21T03:52:03.877Z,99.90
2019-04-21T03:54:26.946Z,99.90
2019-04-21T03:57:11.316Z,99.90
2019-04-21T03:59:24.285Z,99.90
2019-04-21T04:04:42.155Z,99.90
2019-04-21T04:10:03.700Z,99.90
2019-04-21T04:12:19.659Z,99.90
2019-04-21T04:14:50.210Z,99.90
2019-04-21T04:17:26.187Z,99.90
2019-04-21T04:20:01.093Z,99.90
2019-04-21T04:22:31.897Z,99.90
2019-04-21T04:25:07.856Z,99.90
2019-04-21T04:29:59.668Z,99.90
2019-04-21T04:32:33.007Z,99.90
2019-04-21T04:35:04.013Z,99.90
2019-04-21T04:37:32.947Z,99.90
2019-04-21T04:42:45.676Z,99.90
2019-04-21T04:45:26.481Z,99.90
2019-04-21T04:47:43.089Z,99.90
2019-04-21T04:50:17.795Z,99.90
2019-04-21T04:55:19.486Z,99.90
2019-04-21T04:58:04.925Z,99.90
2019-04-21T05:00:21.523Z,99.90
2019-04-21T05:02:42.359Z,99.90
2019-04-21T05:05:19.058Z,99.90
2019-04-21T05:15:12.919Z,99.90
2019-04-21T05:22:35.283Z,99.90
2019-04-21T05:25:03.484Z,99.90
2019-04-21T05:27:36.564Z,99.90
2019-04-21T05:30:17.761Z,99.90
2019-04-21T05:32:45.106Z,99.90
2019-04-21T05:35:23.145Z,99.90
2019-04-21T05:37:47.294Z,99.90
2019-04-21T05:40:20.095Z,99.90
2019-04-21T05:42:52.543Z,99.90
2019-04-21T05:45:26.888Z,99.90
2019-04-21T05:48:12.073Z,99.90
2019-04-21T05:50:34.948Z,99.90
2019-04-21T05:53:00.224Z,99.90
2019-04-21T05:58:23.378Z,99.90
2019-04-21T06:00:59.713Z,99.90
2019-04-21T06:03:17.627Z,99.90
2019-04-21T06:05:51.104Z,99.90
2019-04-21T06:08:15.772Z,99.90
2019-04-21T06:10:49.287Z,99.90
2019-04-21T06:13:21.814Z,99.90
2019-04-21T06:15:50.271Z,99.90
2019-04-21T06:18:13.939Z,99.90
2019-04-21T06:20:41.791Z,99.90
2019-04-21T06:23:13.550Z,99.90
2019-04-21T06:25:54.533Z,99.90
2019-04-21T06:28:17.885Z,99.90
2019-04-21T06:30:56.279Z,99.90
2019-04-21T06:33:24.076Z,99.90
2019-04-21T06:36:11.370Z,99.90
2019-04-21T06:38:53.861Z,99.90
2019-04-21T06:41:21.306Z,99.90
2019-04-21T06:43:48.444Z,99.90
2019-04-21T06:46:21.102Z,99.90
2019-04-21T06:48:53.673Z,99.90
2019-04-21T06:51:20.478Z,99.90
2019-04-21T06:53:53.972Z,99.90
2019-04-21T06:56:14.935Z,99.90
2019-04-21T06:58:45.037Z,99.90
2019-04-21T07:01:17.198Z,99.90
2019-04-21T07:03:50.193Z,99.90
2019-04-21T07:06:17.825Z,99.90
2019-04-21T07:08:55.106Z,99.90
2019-04-21T07:11:15.304Z,99.90
2019-04-21T07:13:50.904Z,99.90
2019-04-21T07:16:18.715Z,99.90
2019-04-21T07:18:54.156Z,99.90
2019-04-21T07:21:17.233Z,99.90
2019-04-21T07:23:57.322Z,99.90
2019-04-21T07:26:22.173Z,99.90
2019-04-21T07:28:58.415Z,99.90
2019-04-21T07:31:18.983Z,99.90
2019-04-21T07:36:21.353Z,99.90
2019-04-21T07:38:45.473Z,99.30
2019-04-21T07:41:13.130Z,98.80
2019-04-21T07:43:42.843Z,98.30
2019-04-21T07:46:11.709Z,99.90
2019-04-21T07:48:49.888Z,98.60
2019-04-21T07:51:32.313Z,97.40
2019-04-21T07:54:23.789Z,97.20
2019-04-21T07:56:20.268Z,97.80
2019-04-21T07:59:02.611Z,96.90
2019-04-21T08:01:30.869Z,96.30
2019-04-21T08:04:08.439Z,96.00
2019-04-21T08:06:38.739Z,96.50
2019-04-21T08:09:06.216Z,95.90
2019-04-21T08:11:28.125Z,96.30
2019-04-21T08:14:01.708Z,95.10
2019-04-21T08:16:42.114Z,94.50
2019-04-21T08:19:08.559Z,94.80
2019-04-21T08:21:37.009Z,95.00
2019-04-21T08:24:03.088Z,94.00
2019-04-21T08:26:35.981Z,92.90
2019-04-21T08:29:12.717Z,91.70
2019-04-21T08:31:38.296Z,91.50
2019-04-21T08:34:08.341Z,92.90
2019-04-21T08:36:34.002Z,92.20
2019-04-21T08:39:07.050Z,90.50
2019-04-21T08:41:31.618Z,89.00
2019-04-21T08:44:20.932Z,86.80
2019-04-21T08:46:40.888Z,90.00
2019-04-21T08:49:10.888Z,90.50
2019-04-21T08:51:40.874Z,89.40
2019-04-21T08:54:11.429Z,85.30
2019-04-21T08:56:49.563Z,83.90
2019-04-21T08:59:31.263Z,82.10
2019-04-21T09:02:09.176Z,76.80
2019-04-21T09:04:34.121Z,73.50
2019-04-21T09:07:16.276Z,72.00
2019-04-21T09:09:34.970Z,70.10
2019-04-21T09:12:07.250Z,72.00
2019-04-21T09:14:36.527Z,69.30
2019-04-21T09:17:01.665Z,70.70
2019-04-21T09:19:44.467Z,71.30
2019-04-21T09:22:07.038Z,68.10
2019-04-21T09:24:35.168Z,66.10
2019-04-21T09:27:03.848Z,60.20
2019-04-21T09:29:28.302Z,58.90
2019-04-21T09:31:50.309Z,59.30
2019-04-21T09:34:27.132Z,57.60
2019-04-21T09:36:53.353Z,57.40
2019-04-21T09:39:22.642Z,59.50
2019-04-21T09:41:53.664Z,57.80
2019-04-21T09:44:25.973Z,58.10
2019-04-21T09:46:54.017Z,56.50
2019-04-21T09:49:24.157Z,53.50
2019-04-21T09:51:50.546Z,51.00
2019-04-21T09:54:24.816Z,48.70
2019-04-21T09:56:54.977Z,49.60
2019-04-21T09:59:28.087Z,50.20
2019-04-21T10:01:59.213Z,51.20
2019-04-21T10:04:20.851Z,48.40
2019-04-21T10:06:49.796Z,47.30
2019-04-21T10:09:21.516Z,46.60
2019-04-21T10:11:50.406Z,44.10
2019-04-21T10:14:19.774Z,44.20
2019-04-21T10:16:53.950Z,40.60
2019-04-21T10:19:23.337Z,37.60
2019-04-21T10:21:52.111Z,37.70
2019-04-21T10:24:20.703Z,34.40
2019-04-21T10:26:49.376Z,35.20
2019-04-21T10:29:25.063Z,34.00
2019-04-21T10:31:48.487Z,32.40
2019-04-21T10:34:17.096Z,32.10
2019-04-21T10:36:47.031Z,32.70
2019-04-21T10:39:15.774Z,32.30
2019-04-21T10:41:45.694Z,30.10
2019-04-21T10:44:14.396Z,28.60
2019-04-21T10:46:45.301Z,28.30
2019-04-21T10:49:14.701Z,28.40
2019-04-21T10:51:43.442Z,27.60
2019-04-21T10:54:12.051Z,27.90
2019-04-21T10:56:43.827Z,28.30
2019-04-21T10:59:12.020Z,28.70
2019-04-21T11:01:41.148Z,27.10
2019-04-21T11:04:20.240Z,27.60
2019-04-21T11:06:44.388Z,26.70
2019-04-21T11:09:13.860Z,26.80
2019-04-21T11:11:44.979Z,26.60
2019-04-21T11:14:13.459Z,25.10
2019-04-21T11:16:43.056Z,25.10
2019-04-21T11:19:13.639Z,23.60
2019-04-21T11:21:42.882Z,21.80
2019-04-21T11:24:12.282Z,21.70
2019-04-21T11:26:42.072Z,20.70
2019-04-21T11:29:10.862Z,20.30
2019-04-21T11:31:39.375Z,20.20
2019-04-21T11:34:09.206Z,19.70
2019-04-21T11:36:37.831Z,19.10
2019-04-21T11:39:30.700Z,18.50
2019-04-21T11:41:49.780Z,18.90
2019-04-21T11:44:19.221Z,19.10
2019-04-21T11:46:48.912Z,19.20
2019-04-21T11:49:18.028Z,18.70
2019-04-21T11:51:46.981Z,18.80
2019-04-21T11:54:16.948Z,17.80
2019-04-21T11:56:45.651Z,18.60
2019-04-21T11:59:15.394Z,17.40
2019-04-21T12:01:45.576Z,17.70
2019-04-21T12:04:15.966Z,18.20
2019-04-21T12:06:47.632Z,18.10
2019-04-21T12:09:14.937Z,18.40
2019-04-21T12:11:43.490Z,18.30
2019-04-21T12:14:12.239Z,18.20
2019-04-21T12:16:41.210Z,18.80
2019-04-21T12:19:09.913Z,17.80
2019-04-21T12:21:49.185Z,17.90
2019-04-21T12:24:09.039Z,17.30
2019-04-21T12:26:37.981Z,18.40
2019-04-21T12:29:06.487Z,18.30
2019-04-21T12:31:55.071Z,18.00
2019-04-21T12:34:23.801Z,17.20
2019-04-21T12:36:52.805Z,16.50
2019-04-21T12:39:22.902Z,17.10
2019-04-21T12:41:51.635Z,17.70
2019-04-21T12:44:20.467Z,16.60
2019-04-21T12:46:49.793Z,16.90
2019-04-21T12:49:18.459Z,17.10
2019-04-21T12:51:48.065Z,17.90
2019-04-21T12:54:17.576Z,18.20
2019-04-21T12:56:47.553Z,19.40
2019-04-21T12:59:16.960Z,20.50
2019-04-21T13:01:45.868Z,20.10
2019-04-21T13:04:15.626Z,21.40
2019-04-21T13:06:45.598Z,20.50
2019-04-21T13:09:17.993Z,21.00
2019-04-21T13:11:44.434Z,21.00
2019-04-21T13:14:13.725Z,20.70
2019-04-21T13:16:43.443Z,20.50
2019-04-21T13:19:13.125Z,20.90
2019-04-21T13:21:42.339Z,21.40
2019-04-21T13:24:11.711Z,21.50
2019-04-21T13:26:47.199Z,21.30
2019-04-21T13:29:10.670Z,20.20
2019-04-21T13:31:40.349Z,20.40
2019-04-21T13:34:10.342Z,19.70
2019-04-21T13:36:39.488Z,19.30
2019-04-21T13:39:50.682Z,18.90
2019-04-21T13:42:13.435Z,18.90
2019-04-21T13:44:34.840Z,19.20
2019-04-21T13:47:04.758Z,18.80
2019-04-21T13:49:34.989Z,18.80
2019-04-21T13:52:04.816Z,19.10
2019-04-21T13:54:33.744Z,18.60
2019-04-21T13:57:02.788Z,18.00
2019-04-21T13:59:31.960Z,19.10
2019-04-21T14:02:00.611Z,19.00
2019-04-21T14:04:29.592Z,19.30
2019-04-21T14:07:00.492Z,19.60
2019-04-21T14:09:37.785Z,19.30
2019-04-21T14:11:59.323Z,20.80
2019-04-21T14:14:28.326Z,19.70
2019-04-21T14:16:58.322Z,20.80
2019-04-21T14:19:27.794Z,20.00
2019-04-21T14:21:57.112Z,19.30
2019-04-21T14:24:26.714Z,20.70
2019-04-21T14:26:56.276Z,20.20
2019-04-21T14:29:25.705Z,21.40
2019-04-21T14:31:54.363Z,19.80
2019-04-21T14:34:23.886Z,20.50
2019-04-21T14:36:52.941Z,20.60
2019-04-21T14:39:22.773Z,20.70
2019-04-21T14:41:51.811Z,20.60
2019-04-21T14:44:20.708Z,20.20
2019-04-21T14:46:51.318Z,19.70
2019-04-21T14:49:24.472Z,20.00
2019-04-21T14:52:01.167Z,21.30
2019-04-21T14:54:33.019Z,22.20
2019-04-21T14:57:03.276Z,21.80
2019-04-21T14:59:33.260Z,21.40
2019-04-21T15:02:02.203Z,21.50
2019-04-21T15:04:31.507Z,21.10
2019-04-21T15:07:01.361Z,21.10
2019-04-21T15:09:31.406Z,21.40
2019-04-21T15:12:00.530Z,21.10
2019-04-21T15:14:29.794Z,21.70
2019-04-21T15:16:58.730Z,21.50
2019-04-21T15:19:28.677Z,21.40
2019-04-21T15:21:58.673Z,21.00
2019-04-21T15:24:27.432Z,20.80
2019-04-21T15:26:56.894Z,21.80
2019-04-21T15:29:26.769Z,21.50
2019-04-21T15:31:56.762Z,20.90
2019-04-21T15:34:27.217Z,21.20
2019-04-21T15:36:55.678Z,21.30
2019-04-21T15:39:25.625Z,21.70
2019-04-21T15:41:54.610Z,22.10
2019-04-21T15:44:24.728Z,23.10
2019-04-21T15:46:53.591Z,22.30
2019-04-21T15:49:23.089Z,22.10
2019-04-21T15:51:51.903Z,22.00
2019-04-21T15:54:20.816Z,21.90
2019-04-21T15:56:51.378Z,21.40
2019-04-21T15:59:40.203Z,22.00
2019-04-21T16:02:26.613Z,21.50
2019-04-21T16:04:55.178Z,22.30
2019-04-21T16:07:24.436Z,21.80
2019-04-21T16:09:54.363Z,22.10
2019-04-21T16:12:22.978Z,22.60
2019-04-21T16:14:52.528Z,22.70
2019-04-21T16:17:21.337Z,22.80
2019-04-21T16:19:49.974Z,22.50
2019-04-21T16:22:18.859Z,22.10
2019-04-21T16:24:47.772Z,22.00
2019-04-21T16:27:17.423Z,22.20
2019-04-21T16:29:46.046Z,21.40
2019-04-21T16:32:17.528Z,21.50
2019-04-21T16:34:50.790Z,21.50
2019-04-21T16:37:15.330Z,22.00
2019-04-21T16:39:45.324Z,22.70
2019-04-21T16:42:14.239Z,22.30
2019-04-21T16:44:43.019Z,22.00
2019-04-21T16:47:11.800Z,21.80
2019-04-21T16:49:40.375Z,21.60
2019-04-21T16:52:23.909Z,22.20
2019-04-21T16:54:54.183Z,21.50
2019-04-21T16:57:37.455Z,21.90
2019-04-21T17:00:10.743Z,22.10
2019-04-21T17:02:40.796Z,22.50
2019-04-21T17:05:10.021Z,23.10
2019-04-21T17:07:38.820Z,22.90
2019-04-21T17:10:08.651Z,22.60
2019-04-21T17:12:37.506Z,21.90
2019-04-21T17:15:24.321Z,22.40
2019-04-21T17:17:59.989Z,22.70
2019-04-21T17:20:19.270Z,23.70
2019-04-21T17:22:39.783Z,23.40
2019-04-21T17:25:08.768Z,23.60
2019-04-21T17:27:38.894Z,23.50
2019-04-21T17:30:10.570Z,23.60
2019-04-21T17:32:43.361Z,23.60
2019-04-21T17:35:10.193Z,23.80
2019-04-21T17:37:40.348Z,24.30
2019-04-21T17:40:09.781Z,23.90
2019-04-21T17:42:46.008Z,24.80
2019-04-21T17:45:09.246Z,24.30
2019-04-21T17:47:45.786Z,24.50
2019-04-21T17:50:11.604Z,24.40
2019-04-21T17:52:48.603Z,24.60
2019-04-21T17:55:28.224Z,24.80
2019-04-21T17:58:10.946Z,25.50
2019-04-21T18:01:06.517Z,25.20
2019-04-21T18:03:27.133Z,25.80
2019-04-21T18:05:42.524Z,25.70
2019-04-21T18:08:21.505Z,26.10
2019-04-21T18:10:45.756Z,26.40
2019-04-21T18:13:05.888Z,26.50
2019-04-21T18:15:42.431Z,27.10
2019-04-21T18:17:59.099Z,27.10
2019-04-21T18:20:32.297Z,26.80
2019-04-21T18:23:22.508Z,27.00
2019-04-21T18:25:47.424Z,27.20
2019-04-21T18:28:08.493Z,27.40
2019-04-21T18:30:46.852Z,27.60
2019-04-21T18:33:22.185Z,27.90
2019-04-21T18:36:05.089Z,28.00
2019-04-21T18:38:57.055Z,27.90
2019-04-21T18:41:07.690Z,28.40
2019-04-21T18:44:08.008Z,29.00
2019-04-21T18:46:38.620Z,29.10
2019-04-21T18:49:13.241Z,29.50
2019-04-21T18:52:04.928Z,30.20
2019-04-21T18:54:47.226Z,30.50
2019-04-21T18:57:08.070Z,30.50
2019-04-21T18:59:34.660Z,30.90
2019-04-21T19:02:05.867Z,31.40
2019-04-21T19:04:32.551Z,32.20
2019-04-21T19:07:14.211Z,32.50
2019-04-21T19:12:23.736Z,32.80
2019-04-21T19:14:45.738Z,33.30
2019-04-21T19:17:40.835Z,33.50
2019-04-21T19:19:56.302Z,33.90
2019-04-21T19:22:15.636Z,34.00
2019-04-21T19:24:53.085Z,34.20
2019-04-21T19:27:22.570Z,33.90
2019-04-21T19:30:02.921Z,34.00
2019-04-21T19:32:21.165Z,34.00
2019-04-21T19:34:37.772Z,34.50
2019-04-21T19:37:10.835Z,35.10
2019-04-21T19:39:45.936Z,35.60
2019-04-21T19:42:14.439Z,35.30
2019-04-21T19:44:47.303Z,35.50
2019-04-21T19:47:25.743Z,35.40
2019-04-21T19:49:55.136Z,35.40
2019-04-21T19:52:11.006Z,35.60
2019-04-21T19:54:37.965Z,36.00
2019-04-21T19:57:04.909Z,35.70
2019-04-21T19:59:41.750Z,35.50
2019-04-21T20:02:04.589Z,35.50
2019-04-21T20:04:40.728Z,35.70
2019-04-21T20:07:39.276Z,36.20
2019-04-21T20:10:14.348Z,36.60
2019-04-21T20:12:50.186Z,36.80
2019-04-21T20:15:20.264Z,37.10
2019-04-21T20:17:38.851Z,37.00
2019-04-21T20:19:54.216Z,37.30
2019-04-21T20:22:24.923Z,37.40
2019-04-21T20:25:00.171Z,37.40
2019-04-21T20:27:37.487Z,37.70
2019-04-21T20:30:10.889Z,37.80
2019-04-21T20:32:43.033Z,37.60
2019-04-21T20:35:16.831Z,37.50
2019-04-21T20:37:42.448Z,37.60
2019-04-21T20:40:02.269Z,37.80
2019-04-21T20:42:38.944Z,37.90
2019-04-21T20:45:28.944Z,38.00
2019-04-21T20:47:35.229Z,38.30
2019-04-21T20:50:11.387Z,38.20
2019-04-21T20:52:47.880Z,38.40
2019-04-21T20:55:07.479Z,38.60
2019-04-21T20:57:40.827Z,38.50
2019-04-21T21:00:15.468Z,38.80
2019-04-21T21:02:47.024Z,39.10
2019-04-21T21:05:05.288Z,39.40
2019-04-21T21:07:45.763Z,39.30
2019-04-21T21:10:16.861Z,39.50
2019-04-21T21:12:56.226Z,39.30
2019-04-21T21:15:07.911Z,39.60
2019-04-21T21:17:56.297Z,39.80
2019-04-21T21:20:21.246Z,40.10
2019-04-21T21:22:43.963Z,40.30
2019-04-21T21:25:18.756Z,40.50
2019-04-21T21:27:42.156Z,40.60
2019-04-21T21:30:16.024Z,40.80
2019-04-21T21:32:44.243Z,41.00
2019-04-21T21:35:13.740Z,41.20
2019-04-21T21:37:49.451Z,41.70
2019-04-21T21:40:17.998Z,41.80
2019-04-21T21:42:35.335Z,41.80
2019-04-21T21:45:07.808Z,41.60
2019-04-21T21:47:49.913Z,41.20
2019-04-21T21:50:11.538Z,40.80
2019-04-21T21:52:43.705Z,40.70
2019-04-21T21:55:01.577Z,40.40
2019-04-21T21:57:32.949Z,40.20
2019-04-21T22:00:04.739Z,40.40
2019-04-21T22:02:36.209Z,40.40
2019-04-21T22:05:08.702Z,40.70
2019-04-21T22:07:33.711Z,40.90
2019-04-21T22:10:02.448Z,41.40
2019-04-21T22:12:42.831Z,41.10
2019-04-21T22:15:09.045Z,40.90
2019-04-21T22:17:45.724Z,40.90
2019-04-21T22:20:20.169Z,41.20
2019-04-21T22:22:42.615Z,41.30
2019-04-21T22:25:09.996Z,41.70
2019-04-21T22:27:32.848Z,41.80
2019-04-21T22:30:05.668Z,41.70
2019-04-21T22:32:34.612Z,41.90
2019-04-21T22:35:06.941Z,42.10
2019-04-21T22:37:45.160Z,42.30
2019-04-21T22:40:14.534Z,42.40
2019-04-21T22:42:40.166Z,42.50
2019-04-21T22:45:03.063Z,42.70
2019-04-21T22:47:34.550Z,42.60
2019-04-21T22:50:02.646Z,42.70
2019-04-21T22:52:32.324Z,42.90
2019-04-21T22:55:08.200Z,43.30
2019-04-21T22:57:36.487Z,43.60
2019-04-21T23:00:07.131Z,43.50
2019-04-21T23:02:35.295Z,43.50
2019-04-21T23:05:04.534Z,43.60
2019-04-21T23:07:41.438Z,44.10
2019-04-21T23:10:05.422Z,44.00
2019-04-21T23:12:37.111Z,44.20
2019-04-21T23:15:13.450Z,44.30
2019-04-21T23:18:00.759Z,44.60
2019-04-21T23:20:29.635Z,44.70
2019-04-21T23:23:10.225Z,44.60
2019-04-21T23:25:26.214Z,44.80
2019-04-21T23:27:59.135Z,45.00
2019-04-21T23:30:34.112Z,45.20
2019-04-21T23:32:50.718Z,45.30
2019-04-21T23:35:18.817Z,45.50
2019-04-21T23:37:50.317Z,45.50
2019-04-21T23:40:17.652Z,45.80
2019-04-21T23:42:45.070Z,46.00
2019-04-21T23:45:12.527Z,46.00
2019-04-21T23:47:51.628Z,46.20
2019-04-21T23:50:25.409Z,46.40
2019-04-21T23:52:43.684Z,46.60
2019-04-21T23:55:13.509Z,46.70
2019-04-21T23:57:46.551Z,47.10
